createdAt,value
2022-08-07T00:01:43.669Z,99520.58
2022-08-07T00:04:05.139Z,99520.78
2022-08-07T00:06:33.776Z,99522.70
2022-08-07T00:09:16.866Z,99521.20
2022-08-07T00:11:53.825Z,99524.98
2022-08-07T00:14:21.428Z,99520.91
2022-08-07T00:16:52.627Z,99522.63
2022-08-07T00:19:21.591Z,99520.70
2022-08-07T00:21:56.779Z,99520.54
2022-08-07T00:24:28.997Z,99517.76
2022-08-07T00:27:07.243Z,99521.72
2022-08-07T00:29:37.043Z,99524.09
2022-08-07T00:32:05.985Z,99524.67
2022-08-07T00:34:35.519Z,99522.27
2022-08-07T00:37:04.915Z,99522.42
2022-08-07T00:39:35.880Z,99519.77
2022-08-07T00:42:05.432Z,99525.23
2022-08-07T00:44:33.770Z,99528.33
2022-08-07T00:47:01.880Z,99526.66
2022-08-07T00:50:21.367Z,99524.98
2022-08-07T00:52:19.800Z,99525.73
2022-08-07T00:54:53.326Z,99526.25
2022-08-07T00:57:25.849Z,99527.69
2022-08-07T00:59:53.925Z,99524.45
2022-08-07T01:02:28.647Z,99529.86
2022-08-07T01:04:58.737Z,99532.61
2022-08-07T01:07:27.585Z,99537.19
2022-08-07T01:10:06.066Z,99537.80
2022-08-07T01:12:38.695Z,99538.32
2022-08-07T01:15:06.733Z,99540.33
2022-08-07T01:17:40.080Z,99536.98
2022-08-07T01:20:17.015Z,99540.38
2022-08-07T01:23:00.567Z,99537.80
2022-08-07T01:25:54.355Z,99536.98
2022-08-07T01:28:19.208Z,99534.48
2022-08-07T01:30:47.917Z,99534.52
2022-08-07T01:33:18.716Z,99535.86
2022-08-07T01:35:54.141Z,99532.82
2022-08-07T01:38:25.214Z,99531.92
2022-08-07T01:41:01.071Z,99536.73
2022-08-07T01:43:38.168Z,99537.58
2022-08-07T01:46:08.101Z,99534.58
2022-08-07T01:48:41.256Z,99538.11
2022-08-07T01:52:02.734Z,99538.02
2022-08-07T01:54:12.266Z,99541.02
2022-08-07T01:56:52.849Z,99536.72
2022-08-07T01:59:30.838Z,99537.96
2022-08-07T02:02:06.025Z,99534.88
2022-08-07T02:04:55.975Z,99537.59
2022-08-07T02:07:35.833Z,99536.63
2022-08-07T02:10:14.466Z,99536.30
2022-08-07T02:12:42.844Z,99539.43
2022-08-07T02:15:20.286Z,99536.61
2022-08-07T02:17:51.998Z,99539.01
2022-08-07T02:20:23.459Z,99541.11
2022-08-07T02:22:55.396Z,99537.25
2022-08-07T02:26:10.547Z,99541.51
2022-08-07T02:28:11.401Z,99539.37
2022-08-07T02:30:38.979Z,99543.05
2022-08-07T02:33:09.346Z,99542.17
2022-08-07T02:36:29.365Z,99536.05
2022-08-07T02:38:31.453Z,99536.48
2022-08-07T02:41:00.629Z,99537.60
2022-08-07T02:43:27.991Z,99538.97
2022-08-07T02:46:01.475Z,99540.42
2022-08-07T02:48:30.478Z,99537.70
2022-08-07T02:50:57.987Z,99537.36
2022-08-07T02:53:34.045Z,99541.92
2022-08-07T02:56:17.327Z,99541.66
2022-08-07T02:58:48.275Z,99542.27
2022-08-07T03:01:18.757Z,99542.98
2022-08-07T03:03:49.787Z,99543.21
2022-08-07T03:06:26.085Z,99548.55
2022-08-07T03:09:02.162Z,99546.30
2022-08-07T03:11:29.004Z,99550.69
2022-08-07T03:14:01.858Z,99552.05
2022-08-07T03:16:30.892Z,99552.79
2022-08-07T03:18:58.497Z,99551.79
2022-08-07T03:21:25.778Z,99549.67
2022-08-07T03:24:21.220Z,99549.70
2022-08-07T03:26:58.395Z,99551.55
2022-08-07T03:29:33.932Z,99550.31
2022-08-07T03:32:06.662Z,99552.45
2022-08-07T03:34:39.506Z,99552.45
2022-08-07T03:37:14.281Z,99553.58
2022-08-07T03:40:13.257Z,99555.85
2022-08-07T03:42:36.673Z,99553.73
2022-08-07T03:45:05.079Z,99555.86
2022-08-07T03:47:47.822Z,99551.89
2022-08-07T03:50:23.036Z,99555.86
2022-08-07T03:55:57.414Z,99560.70
2022-08-07T03:59:04.710Z,99563.79
2022-08-07T04:01:19.205Z,99564.55
2022-08-07T04:03:55.159Z,99566.73
2022-08-07T04:06:36.103Z,99570.59
2022-08-07T04:09:03.679Z,99571.27
2022-08-07T04:12:25.604Z,99568.29
2022-08-07T04:14:39.036Z,99569.92
2022-08-07T04:17:20.066Z,99571.42
2022-08-07T04:19:51.536Z,99569.05
2022-08-07T04:22:28.704Z,99565.86
2022-08-07T04:24:58.712Z,99566.57
2022-08-07T04:27:28.461Z,99567.00
2022-08-07T04:30:11.850Z,99564.16
2022-08-07T04:32:58.161Z,99562.62
2022-08-07T04:35:25.839Z,99565.70
2022-08-07T04:38:03.120Z,99565.68
2022-08-07T04:40:34.143Z,99569.95
2022-08-07T04:43:03.387Z,99570.01
2022-08-07T04:46:00.732Z,99570.98
2022-08-07T04:48:44.483Z,99573.89
2022-08-07T04:51:36.782Z,99576.33
2022-08-07T04:54:16.371Z,99576.61
2022-08-07T04:58:10.523Z,99577.16
2022-08-07T05:00:36.480Z,99575.56
2022-08-07T05:04:00.936Z,99578.78
2022-08-07T05:06:53.311Z,99578.22
2022-08-07T05:09:45.323Z,99583.14
2022-08-07T05:12:27.322Z,99582.45
2022-08-07T05:15:04.390Z,99584.67
2022-08-07T05:18:00.713Z,99587.10
2022-08-07T05:20:25.032Z,99584.80
2022-08-07T05:22:55.278Z,99585.59
2022-08-07T05:25:25.687Z,99587.67
2022-08-07T05:28:20.675Z,99591.02
2022-08-07T05:30:52.223Z,99587.36
2022-08-07T05:33:20.870Z,99593.79
2022-08-07T05:35:51.595Z,99593.77
2022-08-07T05:39:00.017Z,99592.64
2022-08-07T05:41:14.578Z,99594.10
2022-08-07T05:44:07.945Z,99589.58
2022-08-07T05:46:35.196Z,99595.48
2022-08-07T05:49:11.911Z,99592.51
2022-08-07T05:51:46.537Z,99592.63
2022-08-07T05:54:31.452Z,99594.35
2022-08-07T05:57:04.023Z,99595.70
2022-08-07T05:59:46.534Z,99592.61
2022-08-07T06:02:21.971Z,99591.39
2022-08-07T06:04:58.164Z,99597.88
2022-08-07T06:08:13.748Z,99597.44
2022-08-07T06:10:15.200Z,99599.89
2022-08-07T06:12:43.471Z,99595.63
2022-08-07T06:15:10.490Z,99597.09
2022-08-07T06:17:53.783Z,99601.07
2022-08-07T06:20:31.838Z,99595.23
2022-08-07T06:23:46.145Z,99602.11
2022-08-07T06:25:58.570Z,99605.69
2022-08-07T06:28:27.353Z,99605.52
2022-08-07T06:30:55.383Z,99605.27
2022-08-07T06:33:22.852Z,99605.21
2022-08-07T06:36:11.901Z,99612.77
2022-08-07T06:38:59.434Z,99607.81
2022-08-07T06:42:02.539Z,99606.17
2022-08-07T06:44:45.202Z,99607.85
2022-08-07T06:47:19.016Z,99606.95
2022-08-07T06:49:52.186Z,99605.27
2022-08-07T06:52:35.706Z,99602.86
2022-08-07T06:55:31.492Z,99602.43
2022-08-07T06:58:05.190Z,99601.64
2022-08-07T07:00:42.239Z,99599.26
2022-08-07T07:03:13.959Z,99600.52
2022-08-07T07:06:05.032Z,99600.56
2022-08-07T07:08:32.995Z,99604.31
2022-08-07T07:11:01.451Z,99599.44
2022-08-07T07:13:57.524Z,99601.95
2022-08-07T07:16:30.517Z,99608.64
2022-08-07T07:19:04.114Z,99607.75
2022-08-07T07:22:05.475Z,99609.83
2022-08-07T07:24:39.746Z,99613.39
2022-08-07T07:27:10.230Z,99617.84
2022-08-07T07:30:08.725Z,99616.75
2022-08-07T07:32:25.811Z,99618.15
2022-08-07T07:34:54.389Z,99619.33
2022-08-07T07:37:45.242Z,99621.80
2022-08-07T07:40:10.234Z,99626.83
2022-08-07T07:42:42.959Z,99629.38
2022-08-07T07:45:14.796Z,99626.16
2022-08-07T07:47:52.801Z,99627.98
2022-08-07T07:50:35.098Z,99627.95
2022-08-07T07:53:06.550Z,99624.05
2022-08-07T07:55:57.408Z,99621.10
2022-08-07T07:58:30.029Z,99627.98
2022-08-07T08:00:57.850Z,99633.34
2022-08-07T08:04:10.909Z,99629.91
2022-08-07T08:06:13.182Z,99632.86
2022-08-07T08:08:41.922Z,99633.41
2022-08-07T08:11:16.592Z,99629.45
2022-08-07T08:13:54.729Z,99625.06
2022-08-07T08:16:50.282Z,99632.11
2022-08-07T08:20:17.276Z,99629.94
2022-08-07T08:22:32.737Z,99627.31
2022-08-07T08:25:42.640Z,99630.70
2022-08-07T08:28:06.022Z,99632.17
2022-08-07T08:30:34.433Z,99634.20
2022-08-07T08:33:03.235Z,99632.90
2022-08-07T08:35:39.593Z,99631.66
2022-08-07T08:38:17.165Z,99624.09
2022-08-07T08:41:05.579Z,99618.95
2022-08-07T08:43:56.069Z,99618.19
2022-08-07T08:46:34.385Z,99616.97
2022-08-07T08:49:07.327Z,99614.77
2022-08-07T08:52:12.627Z,99611.98
2022-08-07T08:54:32.376Z,99610.23
2022-08-07T08:57:04.052Z,99608.95
2022-08-07T08:59:48.226Z,99595.77
2022-08-07T09:02:35.094Z,99590.54
2022-08-07T09:05:21.553Z,99589.16
2022-08-07T09:08:02.854Z,99587.80
2022-08-07T09:10:34.555Z,99588.59
2022-08-07T09:13:35.260Z,99595.66
2022-08-07T09:16:20.132Z,99608.73
2022-08-07T09:19:44.650Z,99606.34
2022-08-07T09:24:33.528Z,99597.89
2022-08-07T09:25:28.058Z,99594.56
2022-08-07T09:30:00.459Z,99598.24
2022-08-07T09:30:58.714Z,99600.69
2022-08-07T09:33:57.189Z,99596.85
2022-08-07T09:36:35.869Z,99595.66
2022-08-07T09:39:53.769Z,99592.94
2022-08-07T09:42:33.667Z,99590.95
2022-08-07T09:47:27.828Z,99590.71
2022-08-07T09:48:43.923Z,99591.89
2022-08-07T09:52:15.352Z,99599.73
2022-08-07T09:54:55.027Z,99594.39
2022-08-07T09:57:36.564Z,99595.57
2022-08-07T10:00:14.643Z,99594.67
2022-08-07T10:03:08.210Z,99595.14
2022-08-07T10:06:11.892Z,99592.59
2022-08-07T10:09:05.380Z,99586.41
2022-08-07T10:12:01.660Z,99576.52
2022-08-07T10:14:57.200Z,99573.41
2022-08-07T10:18:00.823Z,99575.25
2022-08-07T10:20:57.885Z,99594.17
2022-08-07T10:24:06.812Z,99604.52
2022-08-07T10:27:10.416Z,99607.95
2022-08-07T10:29:51.530Z,99611.14
2022-08-07T10:32:36.738Z,99607.40
2022-08-07T10:35:56.771Z,99604.02
2022-08-07T10:38:41.137Z,99594.93
2022-08-07T10:41:52.894Z,99586.31
2022-08-07T10:44:45.175Z,99580.52
2022-08-07T10:47:14.041Z,99584.80
2022-08-07T10:49:51.097Z,99587.06
2022-08-07T10:52:22.186Z,99596.64
2022-08-07T10:55:26.656Z,99622.79
2022-08-07T10:58:17.514Z,99615.62
2022-08-07T11:00:56.432Z,99617.20
2022-08-07T11:03:37.850Z,99610.05
2022-08-07T11:06:44.537Z,99611.92
2022-08-07T11:10:08.833Z,99611.05
2022-08-07T11:12:06.812Z,99607.20
2022-08-07T11:14:43.827Z,99604.80
2022-08-07T11:17:56.843Z,99602.05
2022-08-07T11:21:00.128Z,99596.70
2022-08-07T11:23:45.542Z,99587.56
2022-08-07T11:26:31.817Z,99576.17
2022-08-07T11:29:41.160Z,99562.95
2022-08-07T11:32:26.052Z,99555.11
2022-08-07T11:35:01.975Z,99561.98
2022-08-07T11:37:58.443Z,99567.36
2022-08-07T11:40:57.406Z,99582.94
2022-08-07T11:44:11.505Z,99594.16
2022-08-07T11:46:48.593Z,99598.88
2022-08-07T11:49:50.195Z,99589.67
2022-08-07T11:52:29.466Z,99585.92
2022-08-07T11:56:09.136Z,99590.13
2022-08-07T11:58:22.174Z,99595.38
2022-08-07T12:01:59.727Z,99593.36
2022-08-07T12:04:29.571Z,99606.27
2022-08-07T12:07:39.269Z,99610.94
2022-08-07T12:10:15.788Z,99605.23
2022-08-07T12:12:51.911Z,99608.13
2022-08-07T12:15:46.216Z,99605.20
2022-08-07T12:18:45.315Z,99603.05
2022-08-07T12:21:55.667Z,99596.58
2022-08-07T12:24:37.787Z,99590.66
2022-08-07T12:27:16.782Z,99596.52
2022-08-07T12:29:56.963Z,99590.88
2022-08-07T12:32:42.945Z,99586.45
2022-08-07T12:35:13.231Z,99593.63
2022-08-07T12:38:10.109Z,99600.40
2022-08-07T12:40:47.284Z,99607.15
2022-08-07T12:44:04.024Z,99606.77
2022-08-07T12:46:10.481Z,99601.64
2022-08-07T12:49:39.864Z,99600.65
2022-08-07T12:52:17.979Z,99607.61
2022-08-07T12:55:09.270Z,99609.34
2022-08-07T12:57:59.510Z,99615.36
2022-08-07T13:00:36.005Z,99614.58
2022-08-07T13:03:54.984Z,99609.71
2022-08-07T13:07:00.695Z,99603.64
2022-08-07T13:10:28.550Z,99597.98
2022-08-07T13:13:08.251Z,99596.80
2022-08-07T13:15:53.202Z,99598.02
2022-08-07T13:18:54.196Z,99601.70
2022-08-07T13:21:50.371Z,99603.82
2022-08-07T13:24:52.212Z,99606.98
2022-08-07T13:28:11.236Z,99612.23
2022-08-07T13:30:40.238Z,99619.60
2022-08-07T13:34:33.964Z,99626.55
2022-08-07T13:36:54.592Z,99631.59
2022-08-07T13:40:32.740Z,99637.95
2022-08-07T13:42:21.467Z,99648.19
2022-08-07T13:45:11.541Z,99661.86
2022-08-07T13:48:06.605Z,99672.42
2022-08-07T13:50:34.442Z,99681.63
2022-08-07T13:53:02.990Z,99683.49
2022-08-07T13:55:29.798Z,99685.60
2022-08-07T13:58:27.594Z,99688.27
2022-08-07T14:00:55.294Z,99698.81
2022-08-07T14:03:30.046Z,99705.19
2022-08-07T14:06:10.634Z,99706.38
2022-08-07T14:08:46.024Z,99718.34
2022-08-07T14:11:21.706Z,99728.83
2022-08-07T14:13:55.274Z,99731.36
2022-08-07T14:16:31.774Z,99734.73
2022-08-07T14:18:58.552Z,99736.17
2022-08-07T14:22:00.995Z,99731.39
2022-08-07T14:24:37.237Z,99735.41
2022-08-07T14:27:16.082Z,99741.23
2022-08-07T14:30:11.282Z,99749.98
2022-08-07T14:32:45.785Z,99747.20
2022-08-07T14:35:45.514Z,99746.55
2022-08-07T14:38:09.372Z,99753.11
2022-08-07T14:40:57.485Z,99761.77
2022-08-07T14:43:59.470Z,99761.74
2022-08-07T14:46:12.758Z,99755.88
2022-08-07T14:48:44.311Z,99753.33
2022-08-07T14:51:19.779Z,99754.34
2022-08-07T14:54:05.906Z,99754.50
2022-08-07T14:56:34.319Z,99755.02
2022-08-07T14:59:14.152Z,99762.70
2022-08-07T15:01:52.018Z,99769.92
2022-08-07T15:04:18.946Z,99779.06
2022-08-07T15:06:47.853Z,99772.65
2022-08-07T15:09:59.648Z,99774.75
2022-08-07T15:12:07.929Z,99771.48
2022-08-07T15:14:56.043Z,99771.53
2022-08-07T15:17:31.133Z,99767.95
2022-08-07T15:20:32.723Z,99771.00
2022-08-07T15:22:53.742Z,99779.57
2022-08-07T15:25:25.495Z,99778.46
2022-08-07T15:28:36.467Z,99778.59
2022-08-07T15:30:59.418Z,99782.94
2022-08-07T15:37:02.369Z,99788.70
2022-08-07T15:44:52.175Z,99791.58
2022-08-07T15:47:19.387Z,99791.43
2022-08-07T15:50:04.904Z,99791.98
2022-08-07T15:52:36.429Z,99795.33
2022-08-07T15:55:08.661Z,99803.15
2022-08-07T15:57:40.000Z,99803.65
2022-08-07T16:00:31.733Z,99802.61
2022-08-07T16:03:22.072Z,99807.35
2022-08-07T16:05:57.399Z,99804.84
2022-08-07T16:08:30.360Z,99804.91
2022-08-07T16:13:58.471Z,99811.60
2022-08-07T16:16:59.236Z,99816.81
2022-08-07T16:19:59.146Z,99816.33
2022-08-07T16:22:33.419Z,99818.84
2022-08-07T16:25:55.035Z,99823.55
2022-08-07T16:30:07.140Z,99828.70
2022-08-07T16:31:50.072Z,99829.81
2022-08-07T16:34:26.231Z,99830.25
2022-08-07T16:38:06.318Z,99833.00
2022-08-07T16:41:02.312Z,99838.97
2022-08-07T16:44:03.908Z,99838.31
2022-08-07T16:47:16.568Z,99836.86
2022-08-07T16:50:35.214Z,99834.70
2022-08-07T16:54:02.037Z,99829.87
2022-08-07T16:56:04.206Z,99828.05
2022-08-07T16:59:11.095Z,99828.99
2022-08-07T17:01:49.858Z,99826.90
2022-08-07T17:04:24.562Z,99831.90
2022-08-07T17:07:02.794Z,99830.61
2022-08-07T17:10:32.262Z,99832.02
2022-08-07T17:13:41.600Z,99833.60
2022-08-07T17:16:25.190Z,99833.08
2022-08-07T17:18:51.969Z,99831.21
2022-08-07T17:21:22.656Z,99828.69
2022-08-07T17:24:33.921Z,99829.16
2022-08-07T17:27:09.041Z,99832.59
2022-08-07T17:30:14.011Z,99832.64
2022-08-07T17:34:09.107Z,99832.89
2022-08-07T17:36:03.311Z,99833.81
2022-08-07T17:38:35.353Z,99829.12
2022-08-07T17:41:12.463Z,99822.69
2022-08-07T17:44:42.732Z,99825.33
2022-08-07T17:47:38.739Z,99821.41
2022-08-07T17:50:52.530Z,99823.33
2022-08-07T17:53:59.948Z,99828.29
2022-08-07T17:56:29.111Z,99830.10
2022-08-07T17:58:56.960Z,99832.83
2022-08-07T18:01:56.703Z,99833.42
2022-08-07T18:04:57.780Z,99825.46
2022-08-07T18:07:47.117Z,99826.05
2022-08-07T18:12:07.996Z,99835.27
2022-08-07T18:14:18.198Z,99836.92
2022-08-07T18:17:05.229Z,99838.67
2022-08-07T18:21:10.228Z,99835.77
2022-08-07T18:22:50.341Z,99836.34
2022-08-07T18:25:39.099Z,99836.36
2022-08-07T18:28:34.055Z,99839.39
2022-08-07T18:31:18.477Z,99841.51
2022-08-07T18:34:04.175Z,99843.51
2022-08-07T18:36:37.092Z,99846.03
2022-08-07T18:40:05.624Z,99851.42
2022-08-07T18:42:27.653Z,99847.63
2022-08-07T18:45:44.735Z,99854.67
2022-08-07T18:48:10.304Z,99856.98
2022-08-07T18:51:05.060Z,99865.39
2022-08-07T18:53:39.684Z,99866.66
2022-08-07T18:56:57.852Z,99868.77
2022-08-07T18:59:47.233Z,99866.24
2022-08-07T19:02:39.470Z,99864.83
2022-08-07T19:05:27.887Z,99859.84
2022-08-07T19:08:24.280Z,99856.54
2022-08-07T19:11:01.016Z,99854.61
2022-08-07T19:13:55.445Z,99854.98
2022-08-07T19:17:01.510Z,99855.84
2022-08-07T19:19:31.962Z,99864.27
2022-08-07T19:22:31.017Z,99862.88
2022-08-07T19:25:06.370Z,99868.41
2022-08-07T19:28:56.654Z,99875.02
2022-08-07T19:31:01.612Z,99872.39
2022-08-07T19:33:13.348Z,99872.88
2022-08-07T19:35:44.039Z,99876.23
2022-08-07T19:38:16.858Z,99876.66
2022-08-07T19:40:49.215Z,99878.11
2022-08-07T19:43:21.690Z,99877.25
2022-08-07T19:46:10.227Z,99881.71
2022-08-07T19:48:54.039Z,99884.52
2022-08-07T19:51:50.582Z,99889.87
2022-08-07T19:54:32.024Z,99886.75
2022-08-07T19:58:01.870Z,99888.38
2022-08-07T19:59:49.406Z,99891.39
2022-08-07T20:02:23.631Z,99888.42
2022-08-07T20:04:56.209Z,99888.41
2022-08-07T20:07:47.149Z,99886.77
2022-08-07T20:10:37.958Z,99880.76
2022-08-07T20:13:23.685Z,99885.05
2022-08-07T20:15:57.886Z,99881.92
2022-08-07T20:18:32.226Z,99881.55
2022-08-07T20:21:02.161Z,99885.16
2022-08-07T20:23:42.884Z,99883.61
2022-08-07T20:26:10.560Z,99881.98
2022-08-07T20:28:39.094Z,99879.51
2022-08-07T20:31:21.059Z,99883.77
2022-08-07T20:33:56.689Z,99890.30
2022-08-07T20:36:25.646Z,99900.98
2022-08-07T20:39:00.554Z,99904.77
2022-08-07T20:41:42.673Z,99900.88
2022-08-07T20:44:12.465Z,99904.44
2022-08-07T20:46:44.201Z,99907.23
2022-08-07T20:49:59.168Z,99912.52
2022-08-07T20:52:09.242Z,99909.11
2022-08-07T20:54:53.882Z,99909.58
2022-08-07T20:57:25.122Z,99910.00
2022-08-07T21:00:08.289Z,99897.80
2022-08-07T21:02:57.808Z,99894.13
2022-08-07T21:05:51.260Z,99892.30
2022-08-07T21:08:39.303Z,99892.38
2022-08-07T21:11:14.643Z,99894.46
2022-08-07T21:14:16.476Z,99894.49
2022-08-07T21:16:56.334Z,99899.34
2022-08-07T21:20:01.110Z,99903.48
2022-08-07T21:22:19.759Z,99904.01
2022-08-07T21:24:51.050Z,99904.64
2022-08-07T21:27:40.177Z,99896.61
2022-08-07T21:30:15.621Z,99895.52
2022-08-07T21:33:00.920Z,99902.73
2022-08-07T21:36:06.033Z,99908.73
2022-08-07T21:38:49.819Z,99903.59
2022-08-07T21:41:37.825Z,99905.94
2022-08-07T21:44:29.811Z,99901.65
2022-08-07T21:47:04.744Z,99898.52
2022-08-07T21:50:02.616Z,99897.68
2022-08-07T21:52:50.378Z,99894.38
2022-08-07T21:55:30.063Z,99887.73
2022-08-07T21:58:12.315Z,99884.76
2022-08-07T22:00:59.615Z,99879.46
2022-08-07T22:03:35.154Z,99881.20
2022-08-07T22:06:06.304Z,99882.63
2022-08-07T22:08:43.287Z,99883.46
2022-08-07T22:11:11.204Z,99884.27
2022-08-07T22:13:52.944Z,99880.17
2022-08-07T22:16:43.568Z,99874.15
2022-08-07T22:19:23.689Z,99872.69
2022-08-07T22:22:10.776Z,99873.34
2022-08-07T22:24:57.438Z,99873.40
2022-08-07T22:28:01.256Z,99873.83
2022-08-07T22:30:20.160Z,99873.39
2022-08-07T22:32:58.265Z,99873.61
2022-08-07T22:35:40.492Z,99877.42
2022-08-07T22:38:10.612Z,99879.39
2022-08-07T22:40:54.933Z,99880.20
2022-08-07T22:43:33.858Z,99883.14
2022-08-07T22:47:02.696Z,99882.33
2022-08-07T22:49:26.211Z,99885.40
2022-08-07T22:52:48.801Z,99890.68
2022-08-07T22:55:34.098Z,99889.65
2022-08-07T22:58:35.102Z,99889.22
2022-08-07T23:01:49.935Z,99891.27
2022-08-07T23:06:10.127Z,99895.33
2022-08-07T23:08:07.353Z,99900.18
2022-08-07T23:10:52.333Z,99900.02
2022-08-07T23:14:08.876Z,99897.59
2022-08-07T23:16:54.791Z,99899.61
2022-08-07T23:19:59.855Z,99894.62
2022-08-07T23:22:32.895Z,99888.83
2022-08-07T23:25:17.556Z,99888.66
2022-08-07T23:28:22.719Z,99892.88
2022-08-07T23:31:11.188Z,99898.52
2022-08-07T23:34:34.211Z,99897.50
2022-08-07T23:37:18.574Z,99900.27
2022-08-07T23:39:43.191Z,99891.85
2022-08-07T23:42:21.796Z,99892.28
2022-08-07T23:45:33.447Z,99900.29
2022-08-07T23:48:36.168Z,99910.21
2022-08-07T23:52:57.161Z,99913.02
2022-08-07T23:54:36.430Z,99918.08
2022-08-07T23:57:18.469Z,99917.39
